Time;durP1;ratioP1;P1;durP2;ratioP2;P2;SDS_P1;SDS_P2;PMS_P1;PMS_P2;Temp;Humidity;BMP_temperature;BMP_pressure;BME280_temperature;BME280_humidity;BME280_pressure;Samples;Min_cycle;Max_cycle;Signal;HPM_P1;HPM_P2
2021/12/02 00:00:43;;;;;;;9.18;1.10;;;;;;;3.51;100.00;99517.81;4997088;28;20448;-75
2021/12/02 00:03:09;;;;;;;4.40;1.00;;;;;;;3.13;100.00;99479.91;4996569;28;20078;-72
2021/12/02 00:05:35;;;;;;;4.93;0.93;;;;;;;3.33;100.00;99482.72;5013796;28;20057;-73
2021/12/02 00:08:01;;;;;;;7.38;1.30;;;;;;;3.55;100.00;99536.69;4996030;28;20068;-73
2021/12/02 00:10:31;;;;;;;10.63;1.20;;;;;;;3.76;100.00;99548.06;5012786;28;20220;-75
2021/12/02 00:12:58;;;;;;;8.77;1.48;;;;;;;3.72;100.00;99561.47;4981025;28;20022;-74
2021/12/02 00:15:29;;;;;;;8.75;1.10;;;;;;;3.34;100.00;99555.69;4981178;28;20121;-74
2021/12/02 00:18:31;;;;;;;11.35;1.42;;;;;;;2.99;100.00;99560.94;5013661;28;20499;-74
2021/12/02 00:21:07;;;;;;;7.93;1.23;;;;;;;2.97;100.00;99581.09;5009745;28;20039;-74
2021/12/02 00:23:46;;;;;;;10.55;1.20;;;;;;;2.74;100.00;99580.22;5012492;28;20030;-73
2021/12/02 00:26:15;;;;;;;8.20;1.08;;;;;;;2.70;100.00;99566.59;5060183;28;20063;-73
2021/12/02 00:28:42;;;;;;;5.78;0.85;;;;;;;2.68;100.00;99570.22;5042151;28;20028;-73
2021/12/02 00:31:18;;;;;;;11.15;1.35;;;;;;;2.87;100.00;99580.13;5059362;28;20415;-74
2021/12/02 00:33:47;;;;;;;7.05;1.23;;;;;;;2.92;100.00;99564.97;5076518;28;20102;-73
2021/12/02 00:36:15;;;;;;;8.35;1.08;;;;;;;3.12;100.00;99574.75;5076465;28;20036;-73
2021/12/02 00:38:42;;;;;;;8.50;1.27;;;;;;;2.93;100.00;99549.22;5076661;28;20024;-73
2021/12/02 00:41:13;;;;;;;5.07;0.98;;;;;;;3.05;100.00;99565.72;5075599;28;20482;-73
2021/12/02 00:43:39;;;;;;;6.40;1.20;;;;;;;3.09;100.00;99581.97;5041173;28;20593;-73
2021/12/02 00:46:14;;;;;;;8.32;1.50;;;;;;;2.96;100.00;99555.97;5077513;28;20025;-73
2021/12/02 00:48:41;;;;;;;7.13;1.10;;;;;;;2.74;100.00;99532.47;5059128;28;20020;-73
2021/12/02 00:51:08;;;;;;;7.38;1.20;;;;;;;2.40;100.00;99491.47;5059793;28;20032;-74
2021/12/02 00:53:36;;;;;;;6.28;1.15;;;;;;;2.59;100.00;99522.25;5058636;28;20025;-73
2021/12/02 00:56:07;;;;;;;14.18;1.75;;;;;;;2.90;100.00;99548.59;5076165;28;20134;-72
2021/12/02 00:58:33;;;;;;;10.43;1.52;;;;;;;2.82;100.00;99532.72;5075519;28;20210;-72
2021/12/02 01:01:01;;;;;;;11.93;2.50;;;;;;;2.84;100.00;99525.59;5076088;28;20048;-74
2021/12/02 01:03:34;;;;;;;13.00;2.10;;;;;;;2.87;100.00;99512.34;5075648;28;20040;-74
2021/12/02 01:06:00;;;;;;;12.82;2.40;;;;;;;2.97;100.00;99515.91;5075626;28;20095;-73
2021/12/02 01:08:27;;;;;;;12.23;2.45;;;;;;;3.09;100.00;99527.22;5057827;28;20028;-73
2021/12/02 01:10:54;;;;;;;11.55;2.55;;;;;;;3.25;100.00;99574.66;5051543;28;20028;-73
2021/12/02 01:13:21;;;;;;;16.10;2.95;;;;;;;3.13;100.00;99571.19;5053042;28;20039;-74
2021/12/02 01:15:47;;;;;;;17.25;3.15;;;;;;;2.58;100.00;99522.34;5040310;28;20017;-74
2021/12/02 01:18:13;;;;;;;16.10;3.40;;;;;;;2.61;100.00;99517.75;5056346;28;20032;-74
2021/12/02 01:20:42;;;;;;;11.73;2.67;;;;;;;2.78;100.00;99546.94;5052493;28;20032;-74
2021/12/02 01:23:09;;;;;;;13.07;2.13;;;;;;;2.81;100.00;99586.63;5038214;28;20048;-74
2021/12/02 01:25:36;;;;;;;15.70;2.28;;;;;;;2.85;100.00;99533.31;5038462;28;20609;-73
2021/12/02 01:28:04;;;;;;;12.07;2.10;;;;;;;2.70;100.00;99532.69;5078199;28;20029;-74
2021/12/02 01:30:32;;;;;;;9.60;1.88;;;;;;;2.96;100.00;99562.97;5073051;28;20025;-74
2021/12/02 01:33:01;;;;;;;8.57;1.70;;;;;;;2.94;100.00;99563.09;5063483;28;20075;-73
2021/12/02 01:35:28;;;;;;;8.27;1.30;;;;;;;3.19;100.00;99569.06;5042607;28;20086;-74
2021/12/02 01:37:54;;;;;;;8.98;2.03;;;;;;;3.00;100.00;99572.22;5077261;28;20029;-74
2021/12/02 01:40:24;;;;;;;7.68;1.42;;;;;;;2.89;100.00;99560.81;5077837;28;20035;-74
2021/12/02 01:42:57;;;;;;;10.98;1.23;;;;;;;2.91;100.00;99581.56;5063756;28;20031;-73
2021/12/02 01:45:29;;;;;;;7.68;1.20;;;;;;;2.65;100.00;99550.44;5061951;28;20029;-74
2021/12/02 01:47:57;;;;;;;5.88;1.10;;;;;;;2.62;100.00;99575.91;5060009;28;20038;-74
2021/12/02 01:50:25;;;;;;;6.97;1.20;;;;;;;2.38;100.00;99522.03;5042974;28;20020;-74
2021/12/02 01:53:01;;;;;;;6.07;1.02;;;;;;;2.41;100.00;99552.25;5060031;28;20051;-74
2021/12/02 01:55:28;;;;;;;8.57;0.82;;;;;;;2.61;100.00;99576.84;5075679;28;20026;-74
2021/12/02 01:58:00;;;;;;;4.72;0.85;;;;;;;2.62;100.00;99575.91;5077237;28;20032;-74
2021/12/02 02:00:50;;;;;;;6.82;1.00;;;;;;;2.65;100.00;99563.47;5069765;28;20020;-73
2021/12/02 02:03:19;;;;;;;3.72;0.80;;;;;;;2.58;100.00;99564.88;5063204;28;20074;-73
2021/12/02 02:05:57;;;;;;;4.68;0.88;;;;;;;2.62;100.00;99553.28;5065558;28;20021;-73
2021/12/02 02:08:27;;;;;;;9.02;1.20;;;;;;;2.98;100.00;99576.75;5064142;28;20029;-73
2021/12/02 02:11:00;;;;;;;7.60;1.08;;;;;;;3.00;100.00;99565.25;5086434;28;20020;-73
2021/12/02 02:13:26;;;;;;;6.32;1.38;;;;;;;3.04;100.00;99584.91;5048639;28;20035;-74
2021/12/02 02:15:53;;;;;;;3.88;0.95;;;;;;;3.02;100.00;99589.44;5080966;28;20024;-74
2021/12/02 02:18:24;;;;;;;8.60;1.45;;;;;;;2.78;100.00;99591.25;5062375;28;20055;-74
2021/12/02 02:21:02;;;;;;;10.30;1.50;;;;;;;2.63;100.00;99552.31;5044237;28;20025;-74
2021/12/02 02:23:31;;;;;;;8.18;1.10;;;;;;;2.81;100.00;99570.16;5061777;28;20035;-74
2021/12/02 02:25:58;;;;;;;5.30;1.00;;;;;;;2.87;100.00;99575.75;5067425;28;20020;-75
2021/12/02 02:28:28;;;;;;;7.30;1.42;;;;;;;3.12;100.00;99558.25;5046271;28;20119;-73
2021/12/02 02:30:56;;;;;;;4.15;0.93;;;;;;;2.77;100.00;99538.28;5085968;28;20020;-73
2021/12/02 02:33:23;;;;;;;6.68;1.25;;;;;;;3.04;100.00;99551.00;5046583;28;20592;-73
2021/12/02 02:35:52;;;;;;;6.65;1.23;;;;;;;2.89;100.00;99555.59;5065366;28;20056;-76
2021/12/02 02:38:22;;;;;;;7.53;1.02;;;;;;;2.83;100.00;99529.16;5057723;28;20041;-75
2021/12/02 02:40:49;;;;;;;6.93;0.98;;;;;;;2.90;100.00;99592.94;5073311;28;20100;-75
2021/12/02 02:43:23;;;;;;;7.18;1.08;;;;;;;2.38;100.00;99560.28;5073678;28;20020;-76
2021/12/02 02:45:49;;;;;;;6.55;1.00;;;;;;;2.49;100.00;99595.03;5055738;28;20446;-76
2021/12/02 02:48:15;;;;;;;12.15;1.33;;;;;;;2.58;100.00;99611.78;5072784;28;20512;-75
2021/12/02 02:50:41;;;;;;;10.65;1.30;;;;;;;2.60;100.00;99602.06;5054942;28;20068;-74
2021/12/02 02:53:16;;;;;;;9.50;1.35;;;;;;;2.51;100.00;99579.28;5055384;28;20024;-75
2021/12/02 02:55:47;;;;;;;;;;;;;;;2.48;100.00;99608.19;5056364;28;20028;-75
2021/12/02 02:58:46;;;;;;;7.38;1.38;;;;;;;2.48;100.00;99610.78;5075079;28;19969;-76
2021/12/02 03:01:10;;;;;;;8.77;1.65;;;;;;;2.42;100.00;99616.44;5063500;28;20031;-75
2021/12/02 03:08:47;;;;;;;8.38;1.15;;;;;;;2.30;100.00;99561.69;5073494;28;20040;-75
2021/12/02 03:11:13;;;;;;;9.33;1.10;;;;;;;2.57;100.00;99594.50;5067699;28;20119;-75
2021/12/02 03:13:53;;;;;;;5.28;0.80;;;;;;;2.54;100.00;99599.09;5041792;28;20265;-75
2021/12/02 03:19:04;;;;;;;;;;;;;;;2.57;100.00;99617.13;5075525;28;20031;-76
2021/12/02 03:21:30;;;;;;;9.65;1.23;;;;;;;2.61;100.00;99624.59;5077218;28;20003;-75
2021/12/02 03:24:00;;;;;;;9.05;1.20;;;;;;;2.33;100.00;99628.34;5068304;28;20028;-75
2021/12/02 03:26:27;;;;;;;7.50;1.25;;;;;;;2.14;100.00;99630.63;5078816;28;20449;-74
2021/12/02 03:28:54;;;;;;;9.57;1.00;;;;;;;2.13;100.00;99639.34;5056804;28;20164;-74
2021/12/02 03:31:21;;;;;;;7.13;1.30;;;;;;;2.20;100.00;99602.38;5063921;28;20052;-74
2021/12/02 03:33:47;;;;;;;6.95;1.02;;;;;;;2.03;100.00;99600.13;5080665;28;20205;-75
2021/12/02 03:36:15;;;;;;;5.63;0.98;;;;;;;1.88;100.00;99602.88;5050118;28;20159;-74
2021/12/02 03:38:40;;;;;;;8.05;1.08;;;;;;;2.12;100.00;99604.66;5079182;28;20031;-74
2021/12/02 03:41:10;;;;;;;7.38;1.00;;;;;;;2.18;100.00;99603.38;5047489;28;20033;-74
2021/12/02 03:43:38;;;;;;;7.60;1.27;;;;;;;2.25;100.00;99609.84;5059660;28;20082;-74
2021/12/02 03:46:05;;;;;;;5.30;1.33;;;;;;;2.04;100.00;99591.34;5082925;28;20055;-75
2021/12/02 03:48:31;;;;;;;7.65;1.10;;;;;;;1.97;100.00;99553.69;5045831;28;20553;-74
2021/12/02 03:50:57;;;;;;;4.90;1.10;;;;;;;2.14;100.00;99597.59;5061062;28;20021;-74
2021/12/02 03:53:23;;;;;;;4.88;0.90;;;;;;;2.43;100.00;99608.53;5044661;28;20089;-74
2021/12/02 03:55:51;;;;;;;9.52;2.03;;;;;;;2.22;100.00;99605.66;5066555;28;20031;-74
2021/12/02 03:58:17;;;;;;;7.90;1.48;;;;;;;2.39;100.00;99611.47;5081622;28;20375;-74
2021/12/02 04:00:42;;;;;;;5.45;1.20;;;;;;;1.88;100.00;99613.28;5042443;28;20028;-74
2021/12/02 04:03:08;;;;;;;7.55;1.50;;;;;;;1.81;100.00;99614.63;5058063;28;20017;-74
2021/12/02 04:05:34;;;;;;;8.43;1.30;;;;;;;1.97;100.00;99614.38;5076471;28;20462;-74
2021/12/02 04:07:59;;;;;;;8.60;1.50;;;;;;;1.76;100.00;99631.50;5064211;28;20035;-74
2021/12/02 04:10:26;;;;;;;10.50;1.90;;;;;;;1.77;100.00;99591.53;5063253;28;20096;-74
2021/12/02 04:15:32;;;;;;;9.75;1.60;;;;;;;1.98;100.00;99607.44;5070570;28;20032;-74
2021/12/02 04:17:58;;;;;;;7.57;1.40;;;;;;;1.90;100.00;99594.09;5045834;28;20044;-75
2021/12/02 04:20:24;;;;;;;7.60;1.30;;;;;;;2.13;100.00;99601.13;5078730;28;20094;-75
2021/12/02 04:22:51;;;;;;;6.57;1.17;;;;;;;1.93;100.00;99599.94;5078677;28;20103;-75
2021/12/02 04:25:17;;;;;;;6.78;1.00;;;;;;;2.04;100.00;99586.16;5060147;28;20028;-75
2021/12/02 04:27:44;;;;;;;9.15;1.20;;;;;;;2.08;100.00;99611.03;5042586;28;20028;-75
2021/12/02 04:30:13;;;;;;;6.78;1.20;;;;;;;1.84;100.00;99584.94;5058735;28;20089;-75
2021/12/02 04:32:40;;;;;;;9.40;1.60;;;;;;;2.03;100.00;99607.94;5058018;28;20050;-75
2021/12/02 04:35:07;;;;;;;8.15;1.67;;;;;;;1.96;100.00;99617.13;5063635;28;20101;-75
2021/12/02 04:37:33;;;;;;;8.35;1.10;;;;;;;1.56;100.00;99553.03;5064152;28;20434;-75
2021/12/02 04:39:59;;;;;;;10.98;1.30;;;;;;;2.01;100.00;99626.25;5079244;28;20029;-75
2021/12/02 04:42:29;;;;;;;6.40;1.15;;;;;;;2.09;100.00;99636.16;5079328;28;20066;-75
2021/12/02 04:44:55;;;;;;;8.73;1.42;;;;;;;1.70;100.00;99619.75;5066246;28;20027;-74
2021/12/02 04:47:22;;;;;;;9.40;1.83;;;;;;;1.47;100.00;99629.13;5067388;28;20445;-74
2021/12/02 04:49:47;;;;;;;9.35;2.15;;;;;;;1.56;100.00;99649.31;5046107;28;20058;-75
2021/12/02 04:52:19;;;;;;;7.85;1.80;;;;;;;1.53;100.00;99639.13;5052222;28;20031;-75
2021/12/02 04:54:45;;;;;;;5.63;1.33;;;;;;;1.35;100.00;99651.59;5084772;28;20072;-75
2021/12/02 04:57:11;;;;;;;9.00;1.65;;;;;;;1.18;100.00;99655.34;5091400;28;20097;-75
2021/12/02 04:59:36;;;;;;;7.28;1.00;;;;;;;1.29;100.00;99659.81;5076096;28;20020;-72
2021/12/02 06:04:15;;;;;;;15.30;4.25;;;;;;;1.58;100.00;99633.59;5085293;27;20394;-71
2021/12/02 06:06:41;;;;;;;16.30;3.92;;;;;;;1.81;100.00;99668.47;5071680;28;20107;-70
2021/12/02 06:09:08;;;;;;;15.57;4.25;;;;;;;1.82;100.00;99629.31;5072512;28;20025;-70
2021/12/02 06:11:33;;;;;;;15.70;3.08;;;;;;;1.96;100.00;99635.34;5064515;28;20029;-70
2021/12/02 06:13:59;;;;;;;11.73;2.55;;;;;;;2.02;100.00;99633.13;5071187;28;20028;-71
2021/12/02 06:16:25;;;;;;;12.25;1.90;;;;;;;1.88;100.00;99654.94;5071212;28;20024;-71
2021/12/02 06:18:53;;;;;;;12.80;3.03;;;;;;;1.86;100.00;99649.00;5071737;28;20045;-71
2021/12/02 06:21:19;;;;;;;10.20;1.98;;;;;;;1.90;100.00;99652.19;5052713;28;20056;-71
2021/12/02 06:23:45;;;;;;;8.82;1.33;;;;;;;2.08;100.00;99663.94;5069255;28;20068;-71
2021/12/02 06:26:10;;;;;;;10.43;1.40;;;;;;;2.12;100.00;99672.38;5076060;28;20021;-72
2021/12/02 06:28:39;;;;;;;13.20;1.67;;;;;;;2.30;100.00;99672.88;5037333;28;20029;-71
2021/12/02 06:31:08;;;;;;;8.13;1.80;;;;;;;1.95;100.00;99668.34;5043584;28;20028;-71
2021/12/02 06:33:34;;;;;;;9.30;1.52;;;;;;;1.23;100.00;99710.47;5104609;28;20028;-71
2021/12/02 06:35:59;;;;;;;8.02;1.40;;;;;;;1.01;100.00;99648.63;5102545;28;20151;-71
2021/12/02 06:38:25;;;;;;;7.95;1.40;;;;;;;1.23;100.00;99686.25;5068824;28;20107;-71
2021/12/02 06:40:51;;;;;;;11.98;2.08;;;;;;;1.55;100.00;99686.69;5051406;28;20031;-71
2021/12/02 06:43:17;;;;;;;11.63;1.88;;;;;;;1.44;100.00;99676.16;5067808;28;20025;-70
2021/12/02 06:45:43;;;;;;;14.07;1.45;;;;;;;1.68;100.00;99694.47;5069624;28;20386;-71
2021/12/02 06:48:09;;;;;;;10.88;1.60;;;;;;;1.65;100.00;99687.72;5068759;28;20052;-72
2021/12/02 06:50:36;;;;;;;14.93;4.30;;;;;;;1.72;100.00;99710.72;5068257;28;20460;-72
2021/12/02 06:53:03;;;;;;;11.38;2.15;;;;;;;1.66;100.00;99702.41;5068131;28;20028;-71
2021/12/02 06:55:29;;;;;;;12.18;1.70;;;;;;;1.71;100.00;99719.50;5059323;28;20329;-71
2021/12/02 06:57:55;;;;;;;11.90;1.77;;;;;;;1.19;100.00;99706.41;5063368;28;20028;-71
2021/12/02 07:00:22;;;;;;;13.30;2.00;;;;;;;1.44;100.00;99707.38;5102562;28;20082;-70
2021/12/02 07:02:49;;;;;;;8.50;1.90;;;;;;;1.08;100.00;99739.25;5067774;28;20110;-73
2021/12/02 07:05:19;;;;;;;10.43;1.85;;;;;;;0.82;100.00;99744.34;5063421;28;20037;-71
2021/12/02 07:07:45;;;;;;;7.35;1.50;;;;;;;0.53;100.00;99723.63;5060482;28;20036;-70
2021/12/02 07:10:21;;;;;;;8.23;1.60;;;;;;;0.69;100.00;99749.47;5068891;28;20021;-71
2021/12/02 07:12:55;;;;;;;8.60;1.27;;;;;;;1.05;100.00;99750.66;5038731;28;20021;-71
2021/12/02 07:15:43;;;;;;;6.80;1.20;;;;;;;0.95;100.00;99737.41;5066330;28;20139;-71
2021/12/02 07:18:15;;;;;;;7.90;1.23;;;;;;;0.80;100.00;99746.19;5036292;28;20021;-71
2021/12/02 07:20:43;;;;;;;7.55;1.10;;;;;;;0.44;100.00;99749.34;5053774;28;20017;-72
2021/12/02 07:23:09;;;;;;;8.32;1.42;;;;;;;0.65;100.00;99708.19;5054153;28;20029;-73
2021/12/02 07:25:35;;;;;;;4.95;0.98;;;;;;;1.01;100.00;99728.41;5037364;28;20013;-70
2021/12/02 07:28:01;;;;;;;7.70;1.48;;;;;;;0.98;100.00;99747.63;5053917;28;20382;-71
2021/12/02 07:30:30;;;;;;;8.05;1.35;;;;;;;1.20;100.00;99741.88;5053450;28;20052;-71
2021/12/02 07:32:58;;;;;;;12.02;1.48;;;;;;;1.28;100.00;99748.34;5053656;28;20021;-72
2021/12/02 07:35:25;;;;;;;7.47;1.25;;;;;;;1.41;100.00;99760.44;5036826;28;20104;-70
2021/12/02 07:37:53;;;;;;;7.45;1.60;;;;;;;1.51;100.00;99765.88;5036239;28;20025;-73
2021/12/02 07:40:24;;;;;;;11.18;2.20;;;;;;;1.69;100.00;99776.00;5054369;28;20471;-71
2021/12/02 07:42:52;;;;;;;11.02;2.35;;;;;;;1.66;100.00;99774.44;5053933;28;20033;-75
2021/12/02 07:45:19;;;;;;;14.65;2.67;;;;;;;1.70;100.00;99793.28;5053484;28;20118;-75
2021/12/02 07:47:50;;;;;;;12.63;2.58;;;;;;;1.66;100.00;99790.06;5079720;28;20032;-74
2021/12/02 07:50:17;;;;;;;17.65;3.15;;;;;;;1.73;100.00;99785.28;5030363;28;20471;-72
2021/12/02 07:52:50;;;;;;;16.45;2.35;;;;;;;1.76;100.00;99796.31;5053553;28;20044;-72
2021/12/02 07:55:17;;;;;;;11.23;2.15;;;;;;;1.94;100.00;99796.84;5056027;28;20035;-73
2021/12/02 07:57:44;;;;;;;11.50;1.88;;;;;;;2.17;100.00;99776.25;5058947;28;20031;-72
2021/12/02 08:00:13;;;;;;;8.88;1.70;;;;;;;2.18;100.00;99827.38;5056711;28;20025;-72
2021/12/02 08:02:43;;;;;;;6.72;1.58;;;;;;;1.83;100.00;99800.16;5028910;28;20538;-73
2021/12/02 08:05:10;;;;;;;9.07;1.80;;;;;;;1.31;100.00;99792.34;5054106;22;20056;-76
2021/12/02 08:07:38;;;;;;;5.15;1.38;;;;;;;1.61;100.00;99805.13;5074316;28;20143;-72
2021/12/02 08:10:08;;;;;;;6.75;1.50;;;;;;;1.74;100.00;99832.00;5063947;28;20051;-72
2021/12/02 08:12:48;;;;;;;7.50;1.42;;;;;;;1.52;100.00;99796.16;5090982;28;20024;-72
2021/12/02 08:15:26;;;;;;;6.07;1.60;;;;;;;1.33;100.00;99795.69;5070080;28;20027;-72
2021/12/02 08:17:54;;;;;;;6.32;1.50;;;;;;;1.38;100.00;99793.63;5067116;28;20042;-71
2021/12/02 08:20:23;;;;;;;4.90;1.30;;;;;;;1.47;100.00;99821.63;5068179;28;20334;-74
2021/12/02 08:22:49;;;;;;;7.88;1.40;;;;;;;1.26;100.00;99784.84;5070054;28;20073;-73
2021/12/02 08:25:16;;;;;;;4.93;1.10;;;;;;;0.99;100.00;99790.88;5099492;28;20024;-73
2021/12/02 08:27:44;;;;;;;5.78;1.25;;;;;;;1.36;100.00;99795.50;5088430;28;20054;-72
2021/12/02 08:30:13;;;;;;;7.53;1.45;;;;;;;1.43;100.00;99827.97;5101976;28;20434;-73
2021/12/02 08:32:43;;;;;;;6.57;1.50;;;;;;;1.13;100.00;99808.19;5078017;28;20024;-73
2021/12/02 08:35:13;;;;;;;11.10;1.90;;;;;;;1.25;100.00;99827.41;5078220;28;20028;-73
2021/12/02 08:37:47;;;;;;;9.82;1.70;;;;;;;1.11;100.00;99848.22;5096250;28;20103;-73
2021/12/02 08:40:19;;;;;;;7.37;1.40;;;;;;;1.02;100.00;99841.84;5075624;28;20028;-73
2021/12/02 08:42:46;;;;;;;6.38;1.50;;;;;;;1.24;100.00;99839.56;5093348;28;20539;-72
2021/12/02 08:45:13;;;;;;;8.25;1.25;;;;;;;0.60;100.00;99784.66;5078099;28;20069;-73
2021/12/02 08:48:00;;;;;;;4.63;1.42;;;;;;;1.11;100.00;99846.47;5076641;28;20016;-74
2021/12/02 08:50:25;;;;;;;7.28;1.42;;;;;;;1.22;100.00;99828.41;5073329;28;20040;-73
2021/12/02 08:52:55;;;;;;;10.23;1.63;;;;;;;0.98;100.00;99815.22;5088782;28;20100;-74
2021/12/02 08:55:24;;;;;;;8.30;2.00;;;;;;;0.75;100.00;99815.81;5075815;28;20126;-72
2021/12/02 08:57:51;;;;;;;7.07;1.95;;;;;;;0.97;100.00;99865.53;5072900;28;20024;-72
2021/12/02 09:00:25;;;;;;;8.27;1.80;;;;;;;1.25;100.00;99866.41;5093776;28;20024;-73
2021/12/02 09:02:54;;;;;;;9.30;2.08;;;;;;;1.67;100.00;99860.22;5075433;28;20395;-73
2021/12/02 09:05:20;;;;;;;11.65;2.30;;;;;;;1.75;100.00;99853.66;5075392;28;20409;-73
2021/12/02 09:07:47;;;;;;;10.65;2.40;;;;;;;1.93;100.00;99886.31;5058712;28;20043;-73
2021/12/02 09:10:12;;;;;;;8.25;2.10;;;;;;;1.72;100.00;99872.94;5075578;28;20027;-73
2021/12/02 09:12:44;;;;;;;11.25;2.03;;;;;;;1.95;100.00;99913.06;5093710;28;20527;-74
2021/12/02 09:15:11;;;;;;;9.63;2.00;;;;;;;1.78;100.00;99867.31;5075500;28;20023;-73
2021/12/02 09:17:37;;;;;;;8.90;1.85;;;;;;;1.94;100.00;99889.75;5075044;28;20421;-73
2021/12/02 09:20:07;;;;;;;6.72;1.70;;;;;;;2.30;100.00;99908.16;5075045;28;20069;-73
2021/12/02 09:22:34;;;;;;;11.77;2.05;;;;;;;2.55;100.00;99879.63;5075956;28;20028;-73
2021/12/02 09:24:59;;;;;;;8.40;1.90;;;;;;;2.91;100.00;99916.19;5075510;28;20024;-72
2021/12/02 09:27:25;;;;;;;7.82;1.90;;;;;;;2.66;100.00;99914.44;5093549;28;20037;-73
2021/12/02 09:29:53;;;;;;;8.00;1.98;;;;;;;2.68;100.00;99894.31;5075567;28;20020;-73
2021/12/02 09:32:19;;;;;;;10.73;2.22;;;;;;;2.50;100.00;99906.81;5075908;28;20220;-74
2021/12/02 09:34:45;;;;;;;8.88;2.40;;;;;;;2.38;100.00;99923.25;5084273;28;20111;-73
2021/12/02 09:37:10;;;;;;;8.45;2.15;;;;;;;2.62;100.00;99906.91;5076669;28;20042;-74
2021/12/02 09:39:36;;;;;;;8.77;2.35;;;;;;;2.57;100.00;99922.06;5076248;28;20031;-74
2021/12/02 09:42:05;;;;;;;7.63;2.15;;;;;;;2.68;100.00;99937.75;5074636;28;20023;-73
2021/12/02 09:44:33;;;;;;;7.68;2.05;;;;;;;2.69;100.00;99949.88;5058399;28;20081;-73
2021/12/02 09:46:59;;;;;;;6.82;2.10;;;;;;;2.53;100.00;99962.28;5074799;28;20469;-72
2021/12/02 09:49:25;;;;;;;14.50;3.15;;;;;;;2.28;100.00;99943.88;5079454;28;20030;-73
2021/12/02 09:54:21;;;;;;;8.52;1.80;;;;;;;1.70;100.00;99941.63;5093057;28;20024;-72
2021/12/02 09:56:49;;;;;;;5.72;1.30;;;;;;;1.69;100.00;99951.22;5075275;28;20055;-73
2021/12/02 09:59:27;;;;;;;7.90;1.50;;;;;;;1.62;100.00;99987.19;5076417;28;20020;-73
2021/12/02 10:02:06;;;;;;;;;;;;;;;1.61;100.00;100013.31;5064938;28;20019;-73
2021/12/02 10:04:43;;;;;;;4.70;1.20;;;;;;;1.32;100.00;100008.16;5060441;28;20353;-74
2021/12/02 10:09:56;;;;;;;5.85;1.10;;;;;;;1.01;100.00;99984.00;5076615;28;20028;-74
2021/12/02 10:12:23;;;;;;;4.03;1.13;;;;;;;1.09;100.00;99974.91;5059605;28;20095;-73
2021/12/02 10:14:53;;;;;;;8.40;1.70;;;;;;;0.99;100.00;99977.22;5092593;28;20032;-74
2021/12/02 10:17:40;;;;;;;5.43;0.93;;;;;;;1.31;100.00;99964.03;5057803;28;20028;-72
2021/12/02 10:23:19;;;;;;;4.30;1.02;;;;;;;1.77;100.00;99979.34;5092664;28;19934;-76
2021/12/02 10:25:58;;;;;;;8.32;1.55;;;;;;;1.72;100.00;99981.41;5059831;28;20028;-72
2021/12/02 10:28:29;;;;;;;8.27;1.90;;;;;;;2.02;100.00;100009.84;5092343;28;20020;-72
2021/12/02 10:30:58;;;;;;;10.40;2.30;;;;;;;1.92;100.00;99987.97;5074397;28;20061;-73
2021/12/02 10:33:43;;;;;;;10.35;1.80;;;;;;;1.89;100.00;100007.22;5074279;28;20099;-72
2021/12/02 10:36:26;;;;;;;7.65;1.85;;;;;;;1.75;100.00;100021.13;5080691;28;20028;-73
2021/12/02 10:38:58;;;;;;;8.35;1.60;;;;;;;2.03;100.00;100001.97;5074981;28;20131;-72
2021/12/02 10:41:27;;;;;;;8.35;1.70;;;;;;;1.96;100.00;100000.69;5085495;28;20031;-73
2021/12/02 10:44:24;;;;;;;5.68;1.38;;;;;;;2.22;100.00;99996.38;5092385;28;20027;-73
2021/12/02 10:47:16;;;;;;;6.50;1.40;;;;;;;2.30;100.00;100006.31;5092603;28;20141;-72
2021/12/02 10:49:48;;;;;;;7.75;1.67;;;;;;;2.23;100.00;100007.66;5075793;28;20040;-72
2021/12/02 10:52:24;;;;;;;7.63;1.70;;;;;;;2.49;100.00;100009.38;5067785;28;20024;-73
2021/12/02 10:55:10;;;;;;;7.43;1.70;;;;;;;2.29;100.00;100004.63;5080789;28;20150;-72
2021/12/02 10:57:39;;;;;;;8.27;1.98;;;;;;;2.50;100.00;100011.06;5049080;28;20036;-71
2021/12/02 11:00:09;;;;;;;7.10;1.80;;;;;;;2.42;100.00;99983.84;5096328;28;20031;-72
2021/12/02 11:02:38;;;;;;;8.85;1.80;;;;;;;2.17;100.00;100024.50;5061877;28;20059;-72
2021/12/02 11:05:22;;;;;;;6.72;1.80;;;;;;;2.46;100.00;100017.41;5096594;28;20032;-72
2021/12/02 11:08:06;;;;;;;6.20;1.50;;;;;;;2.82;100.00;100030.72;5078645;28;20134;-72
2021/12/02 11:10:42;;;;;;;8.63;1.90;;;;;;;2.95;100.00;100043.75;5067107;28;20386;-72
2021/12/02 11:13:09;;;;;;;6.38;1.60;;;;;;;2.93;100.00;100018.63;5061855;28;20040;-71
2021/12/02 11:15:40;;;;;;;6.13;1.40;;;;;;;3.32;100.00;100036.88;5062948;28;20047;-72
2021/12/02 11:18:09;;;;;;;6.88;1.80;;;;;;;3.55;100.00;100030.06;5097047;28;20085;-73
2021/12/02 11:20:41;;;;;;;8.20;1.90;;;;;;;3.48;100.00;100041.88;5078672;28;20024;-73
2021/12/02 11:23:28;;;;;;;6.72;1.58;;;;;;;3.98;100.00;100043.50;5063348;28;20058;-72
2021/12/02 11:26:11;;;;;;;8.10;1.80;;;;;;;4.64;100.00;100040.50;5087450;28;20517;-76
2021/12/02 11:28:52;;;;;;;7.75;1.80;;;;;;;5.28;100.00;99998.13;5067943;28;20032;-77
2021/12/02 11:31:21;;;;;;;9.85;2.80;;;;;;;5.12;100.00;100006.31;5095888;28;20067;-73
2021/12/02 11:33:50;;;;;;;5.13;1.52;;;;;;;4.80;100.00;99998.31;5092720;28;20028;-72
2021/12/02 11:36:22;;;;;;;5.68;1.50;;;;;;;4.34;100.00;99999.16;5091447;28;20054;-72
2021/12/02 11:38:57;;;;;;;9.70;1.90;;;;;;;3.97;100.00;100031.41;5056558;28;20026;-73
2021/12/02 11:41:23;;;;;;;5.60;1.75;;;;;;;4.03;100.00;100029.28;5077141;28;20057;-74
2021/12/02 11:43:49;;;;;;;6.32;1.55;;;;;;;4.08;100.00;100019.34;5044220;28;20428;-73
2021/12/02 11:46:15;;;;;;;7.15;1.77;;;;;;;4.44;100.00;100030.66;5055966;28;20042;-73
2021/12/02 11:48:43;;;;;;;5.60;1.40;;;;;;;4.29;100.00;99969.88;5090089;28;20046;-73
2021/12/02 11:51:12;;;;;;;7.93;1.65;;;;;;;4.58;100.00;99992.06;5086674;28;20024;-72
2021/12/02 11:53:41;;;;;;;6.43;1.38;;;;;;;4.99;100.00;99990.72;5091421;28;20106;-71
2021/12/02 11:56:09;;;;;;;5.57;1.60;;;;;;;5.86;100.00;100009.25;5073610;28;20074;-73
2021/12/02 11:58:35;;;;;;;8.50;1.95;;;;;;;6.07;100.00;100006.72;5092022;28;20032;-74
2021/12/02 12:01:02;;;;;;;9.23;1.70;;;;;;;6.19;100.00;99997.03;5093729;28;20378;-72
2021/12/02 12:03:43;;;;;;;7.88;1.52;;;;;;;5.18;100.00;100055.59;5094331;28;20024;-72
2021/12/02 12:06:13;;;;;;;6.93;1.40;;;;;;;5.54;100.00;100065.94;5070180;28;20044;-72
2021/12/02 12:08:48;;;;;;;4.82;1.30;;;;;;;6.10;100.00;100073.78;5072881;28;20032;-72
2021/12/02 12:11:26;;;;;;;9.38;1.80;;;;;;;8.42;93.98;100092.81;5070339;28;20032;-74
2021/12/02 12:14:05;;;;;;;5.68;1.23;;;;;;;8.98;88.68;100079.78;5055994;28;20413;-73
2021/12/02 12:16:38;;;;;;;5.72;1.52;;;;;;;8.72;89.67;100090.06;5073389;28;20056;-73
2021/12/02 12:19:27;;;;;;;4.88;1.35;;;;;;;7.20;91.94;100076.16;5056572;28;20448;-72
2021/12/02 12:22:03;;;;;;;5.43;1.35;;;;;;;8.11;92.01;100085.00;5074116;28;20154;-71
2021/12/02 12:24:47;;;;;;;8.30;1.50;;;;;;;8.29;88.26;100082.50;5073304;28;20051;-72
2021/12/02 12:27:32;;;;;;;6.18;1.67;;;;;;;9.43;84.78;100080.94;5057625;28;20062;-73
2021/12/02 12:30:01;;;;;;;8.23;1.42;;;;;;;12.29;70.75;100076.34;5077800;28;20471;-72
2021/12/02 12:32:57;;;;;;;5.97;1.27;;;;;;;13.20;63.89;100080.69;5060686;28;20435;-72
2021/12/02 12:38:26;;;;;;;4.72;1.30;;;;;;;9.76;75.68;100087.44;5070166;28;20162;-74
2021/12/02 12:40:58;;;;;;;7.03;1.40;;;;;;;8.15;83.65;100097.75;5072924;28;20025;-74
2021/12/02 12:43:36;;;;;;;5.05;1.30;;;;;;;7.37;85.51;100091.34;5070931;28;20035;-75
2021/12/02 12:46:14;;;;;;;6.78;1.40;;;;;;;6.94;93.12;100108.06;5076403;28;20099;-74
2021/12/02 12:48:40;;;;;;;7.20;1.58;;;;;;;6.78;92.68;100105.06;5061307;28;20116;-74
2021/12/02 12:51:35;;;;;;;7.65;1.50;;;;;;;6.11;97.44;100121.81;5084412;28;20024;-72
2021/12/02 12:54:23;;;;;;;6.65;1.90;;;;;;;5.20;99.64;100081.63;5077676;28;20022;-76
2021/12/02 12:57:06;;;;;;;7.43;1.92;;;;;;;4.95;100.00;100085.25;5092032;28;20034;-73
2021/12/02 12:59:50;;;;;;;8.85;1.80;;;;;;;4.87;100.00;100111.19;5085961;28;20084;-73
2021/12/02 13:02:16;;;;;;;8.15;1.75;;;;;;;4.96;100.00;100134.03;5077894;28;20074;-76
2021/12/02 13:04:52;;;;;;;8.60;1.80;;;;;;;4.66;100.00;100139.75;5089595;28;20017;-73
2021/12/02 13:07:20;;;;;;;12.48;1.80;;;;;;;4.21;100.00;100111.59;5106210;28;20028;-74
2021/12/02 13:09:58;;;;;;;6.80;1.58;;;;;;;3.95;100.00;100114.28;5100946;28;20120;-73